Startpagina
METAR-TAF:

METAR-TAF

Vliegvelden :

Kota Kinabalu International Airport

Kota Kinabalu, Maleisië

breedte: 05-56N, lengte: 116-03E, hoogte: 3 m

Actueel weer

Dit bericht is 24 minuten geleden gemaakt, om 10:00 UTC
Wind 6 kt uit het westzuidwesten, variërend tussen het zuiden en het noordnoordwesten
Temperatuur 30°C
Vochtigheid 79%
Druk 1006 hPa
Zicht 10 km of meer
Weinig wolken op 1500 ft
Verspreide wolken op 14000 ft
Gebroken wolken op 27000 ft

METAR: WBKK 171000Z 25006KT 180V330 9999 FEW015 SCT140 BKN270 30/26 Q1006 NOSIG

Tijdstip: 18:24 (10:24 UTC)

Verwachting

Dit bericht is 5 uur en het 24 minuten geleden gemaakt, om 05:00 UTC
Verwachting geldig van 17 om 06 UTC tot 18 om 06 UTC
Wind 8 kt uit het westzuidwesten
Zicht 10 km of meer
Weinig wolken op 1500 ft
Wijzigt naar
van 17 om 11 UTC tot 17 om 13 UTC
Wind 5 kt uit het oostzuidoosten

TAF: WBKK 170500Z 1706/1806 25008KT 9999 FEW015 BECMG 1711/1713 11005KT

Waarnemingen en weersverwachtingen van meer dan 4000 vliegvelden (METAR en TAF).

De beschikbare stations zijn de gele en rode punten op de kaart.

Ga met uw muis naar het station om de naam te zien.

Klik dan om waarnemingen en weersverwachtingen te zien.

kaart wijzigen: klik op de groene knoppen met een zwart kruis om in te zoomen, op de groene knop met een streepje om uit te zoomen of op de groene pijlen voor aangrenzende kaarten.


METAR-TAF: